sensor_id;sensor_type;location;lat;lon;timestamp;pressure;altitude;pressure_sealevel;temperature;humidity
53715;BME280;39608;55.630;37.864;2023-11-19T00:01:56;100379.38;;;-7.57;68.40
53715;BME280;39608;55.630;37.864;2023-11-19T00:07:01;100377.41;;;-7.54;68.25
53715;BME280;39608;55.630;37.864;2023-11-19T00:12:06;100389.59;;;-7.53;68.78
53715;BME280;39608;55.630;37.864;2023-11-19T00:17:08;100371.31;;;-7.55;68.13
53715;BME280;39608;55.630;37.864;2023-11-19T00:22:11;100368.00;;;-7.57;68.37
53715;BME280;39608;55.630;37.864;2023-11-19T00:27:17;100371.25;;;-7.63;68.46
53715;BME280;39608;55.630;37.864;2023-11-19T00:32:19;100366.97;;;-7.64;68.40
53715;BME280;39608;55.630;37.864;2023-11-19T00:37:22;100362.53;;;-7.64;68.57
53715;BME280;39608;55.630;37.864;2023-11-19T00:42:24;100340.69;;;-7.82;68.23
53715;BME280;39608;55.630;37.864;2023-11-19T00:47:27;100356.69;;;-7.76;68.63
53715;BME280;39608;55.630;37.864;2023-11-19T00:52:33;100349.09;;;-7.79;68.83
53715;BME280;39608;55.630;37.864;2023-11-19T00:57:35;100352.72;;;-7.80;68.47
53715;BME280;39608;55.630;37.864;2023-11-19T01:02:37;100343.63;;;-7.85;68.79
53715;BME280;39608;55.630;37.864;2023-11-19T01:07:42;100341.38;;;-7.80;68.71
53715;BME280;39608;55.630;37.864;2023-11-19T01:12:44;100341.22;;;-7.79;68.70
53715;BME280;39608;55.630;37.864;2023-11-19T01:17:46;100325.41;;;-7.79;68.67
53715;BME280;39608;55.630;37.864;2023-11-19T01:22:50;100323.28;;;-7.75;68.82
53715;BME280;39608;55.630;37.864;2023-11-19T01:27:52;100314.56;;;-7.76;68.92
53715;BME280;39608;55.630;37.864;2023-11-19T01:32:59;100313.91;;;-7.78;68.86
53715;BME280;39608;55.630;37.864;2023-11-19T01:38:02;100312.09;;;-7.77;68.96
53715;BME280;39608;55.630;37.864;2023-11-19T01:43:04;100293.59;;;-7.85;68.88
53715;BME280;39608;55.630;37.864;2023-11-19T01:48:07;100308.00;;;-7.71;69.01
53715;BME280;39608;55.630;37.864;2023-11-19T01:53:14;100301.72;;;-7.79;68.41
53715;BME280;39608;55.630;37.864;2023-11-19T01:58:17;100300.84;;;-7.87;68.48
53715;BME280;39608;55.630;37.864;2023-11-19T02:03:20;100279.91;;;-7.97;68.63
53715;BME280;39608;55.630;37.864;2023-11-19T02:08:26;100299.56;;;-7.83;69.02
53715;BME280;39608;55.630;37.864;2023-11-19T02:13:29;100306.78;;;-7.85;68.77
53715;BME280;39608;55.630;37.864;2023-11-19T02:18:31;100307.56;;;-7.93;68.65
53715;BME280;39608;55.630;37.864;2023-11-19T02:23:35;100303.78;;;-7.91;68.70
53715;BME280;39608;55.630;37.864;2023-11-19T02:28:41;100291.56;;;-8.00;68.92
53715;BME280;39608;55.630;37.864;2023-11-19T02:33:44;100290.72;;;-8.00;68.84
53715;BME280;39608;55.630;37.864;2023-11-19T02:38:46;100289.19;;;-8.11;68.89
53715;BME280;39608;55.630;37.864;2023-11-19T02:43:50;100289.56;;;-7.98;69.49
53715;BME280;39608;55.630;37.864;2023-11-19T02:48:54;100289.25;;;-7.95;69.24
53715;BME280;39608;55.630;37.864;2023-11-19T02:53:56;100291.44;;;-7.90;69.10
53715;BME280;39608;55.630;37.864;2023-11-19T02:59:00;100298.59;;;-7.74;69.08
53715;BME280;39608;55.630;37.864;2023-11-19T03:04:08;100278.63;;;-7.85;68.63
53715;BME280;39608;55.630;37.864;2023-11-19T03:09:12;100285.66;;;-7.94;68.62
53715;BME280;39608;55.630;37.864;2023-11-19T03:14:15;100289.06;;;-8.01;68.72
53715;BME280;39608;55.630;37.864;2023-11-19T03:19:17;100291.28;;;-8.15;68.86
53715;BME280;39608;55.630;37.864;2023-11-19T03:24:19;100301.81;;;-8.15;69.20
53715;BME280;39608;55.630;37.864;2023-11-19T03:29:24;100284.44;;;-8.26;69.25
53715;BME280;39608;55.630;37.864;2023-11-19T03:34:26;100285.94;;;-8.23;69.36
53715;BME280;39608;55.630;37.864;2023-11-19T03:39:28;100277.56;;;-8.27;68.95
53715;BME280;39608;55.630;37.864;2023-11-19T03:44:32;100259.22;;;-8.36;69.13
53715;BME280;39608;55.630;37.864;2023-11-19T03:49:35;100258.16;;;-8.44;69.41
53715;BME280;39608;55.630;37.864;2023-11-19T03:54:37;100258.34;;;-8.45;69.54
53715;BME280;39608;55.630;37.864;2023-11-19T03:59:41;100261.47;;;-8.42;69.54
53715;BME280;39608;55.630;37.864;2023-11-19T04:04:43;100265.78;;;-8.40;69.48
53715;BME280;39608;55.630;37.864;2023-11-19T04:09:46;100256.59;;;-8.36;69.48
53715;BME280;39608;55.630;37.864;2023-11-19T04:14:50;100254.69;;;-8.26;69.56
53715;BME280;39608;55.630;37.864;2023-11-19T04:19:52;100237.09;;;-8.26;69.72
53715;BME280;39608;55.630;37.864;2023-11-19T04:24:54;100231.72;;;-8.16;69.34
53715;BME280;39608;55.630;37.864;2023-11-19T04:30:00;100234.19;;;-8.22;69.56
53715;BME280;39608;55.630;37.864;2023-11-19T04:35:07;100243.47;;;-8.28;69.62
53715;BME280;39608;55.630;37.864;2023-11-19T04:40:10;100245.44;;;-8.30;69.49
53715;BME280;39608;55.630;37.864;2023-11-19T04:45:14;100237.66;;;-8.40;69.66
53715;BME280;39608;55.630;37.864;2023-11-19T04:50:19;100244.91;;;-8.34;69.41
53715;BME280;39608;55.630;37.864;2023-11-19T04:55:21;100225.63;;;-8.43;69.45
53715;BME280;39608;55.630;37.864;2023-11-19T05:00:24;100245.06;;;-8.35;69.31
53715;BME280;39608;55.630;37.864;2023-11-19T05:05:26;100261.56;;;-8.33;69.35
53715;BME280;39608;55.630;37.864;2023-11-19T05:10:29;100259.94;;;-8.26;69.35
53715;BME280;39608;55.630;37.864;2023-11-19T05:15:34;100260.66;;;-8.16;69.14
53715;BME280;39608;55.630;37.864;2023-11-19T05:20:36;100265.56;;;-8.03;69.54
53715;BME280;39608;55.630;37.864;2023-11-19T05:25:38;100263.25;;;-7.98;69.37
53715;BME280;39608;55.630;37.864;2023-11-19T05:30:44;100228.66;;;-8.11;69.12
53715;BME280;39608;55.630;37.864;2023-11-19T05:35:47;100262.00;;;-7.85;69.13
53715;BME280;39608;55.630;37.864;2023-11-19T05:40:50;100271.19;;;-7.63;69.07
53715;BME280;39608;55.630;37.864;2023-11-19T05:45:53;100265.19;;;-7.39;68.94
53715;BME280;39608;55.630;37.864;2023-11-19T05:50:58;100257.56;;;-7.08;69.42
53715;BME280;39608;55.630;37.864;2023-11-19T05:56:02;100271.44;;;-6.81;68.54
53715;BME280;39608;55.630;37.864;2023-11-19T06:01:06;100250.38;;;-6.73;68.35
53715;BME280;39608;55.630;37.864;2023-11-19T06:06:09;100255.63;;;-6.56;68.00
53715;BME280;39608;55.630;37.864;2023-11-19T06:11:16;100247.72;;;-6.40;67.76
53715;BME280;39608;55.630;37.864;2023-11-19T06:16:23;100266.81;;;-6.05;67.96
53715;BME280;39608;55.630;37.864;2023-11-19T06:21:25;100256.19;;;-5.88;67.51
53715;BME280;39608;55.630;37.864;2023-11-19T06:26:27;100258.13;;;-5.74;67.93
53715;BME280;39608;55.630;37.864;2023-11-19T06:31:30;100243.69;;;-5.46;67.45
53715;BME280;39608;55.630;37.864;2023-11-19T06:36:32;100230.03;;;-5.27;66.84
53715;BME280;39608;55.630;37.864;2023-11-19T06:41:34;100245.78;;;-5.02;66.64
53715;BME280;39608;55.630;37.864;2023-11-19T06:46:40;100241.47;;;-5.03;66.78
53715;BME280;39608;55.630;37.864;2023-11-19T06:51:42;100227.34;;;-5.19;66.77
53715;BME280;39608;55.630;37.864;2023-11-19T06:56:44;100229.28;;;-5.12;66.39
53715;BME280;39608;55.630;37.864;2023-11-19T07:01:48;100214.03;;;-5.34;66.79
53715;BME280;39608;55.630;37.864;2023-11-19T07:06:50;100237.16;;;-5.27;66.25
53715;BME280;39608;55.630;37.864;2023-11-19T07:11:53;100241.78;;;-5.29;66.00
53715;BME280;39608;55.630;37.864;2023-11-19T07:16:58;100234.97;;;-5.24;65.92
53715;BME280;39608;55.630;37.864;2023-11-19T07:22:00;100245.94;;;-5.04;65.80
53715;BME280;39608;55.630;37.864;2023-11-19T07:27:03;100242.16;;;-5.09;65.60
53715;BME280;39608;55.630;37.864;2023-11-19T07:32:14;100251.16;;;-4.95;65.71
53715;BME280;39608;55.630;37.864;2023-11-19T07:37:16;100250.44;;;-4.81;65.33
53715;BME280;39608;55.630;37.864;2023-11-19T07:42:20;100247.03;;;-4.67;65.12
53715;BME280;39608;55.630;37.864;2023-11-19T07:47:25;100251.09;;;-4.56;64.92
53715;BME280;39608;55.630;37.864;2023-11-19T07:52:27;100245.53;;;-4.46;64.38
53715;BME280;39608;55.630;37.864;2023-11-19T07:57:29;100240.88;;;-4.44;64.05
53715;BME280;39608;55.630;37.864;2023-11-19T08:02:33;100238.53;;;-4.39;63.66
53715;BME280;39608;55.630;37.864;2023-11-19T08:07:39;100229.41;;;-4.36;63.45
53715;BME280;39608;55.630;37.864;2023-11-19T08:12:41;100234.72;;;-4.36;63.15
53715;BME280;39608;55.630;37.864;2023-11-19T08:17:44;100217.72;;;-4.42;62.70
53715;BME280;39608;55.630;37.864;2023-11-19T08:22:47;100216.25;;;-4.30;62.58
53715;BME280;39608;55.630;37.864;2023-11-19T08:27:50;100217.94;;;-4.14;62.31
53715;BME280;39608;55.630;37.864;2023-11-19T08:32:54;100211.72;;;-4.21;61.35
53715;BME280;39608;55.630;37.864;2023-11-19T08:37:57;100226.19;;;-4.08;60.80
53715;BME280;39608;55.630;37.864;2023-11-19T08:42:59;100198.75;;;-4.16;60.37
53715;BME280;39608;55.630;37.864;2023-11-19T08:48:03;100212.84;;;-3.70;60.62
53715;BME280;39608;55.630;37.864;2023-11-19T08:53:05;100200.69;;;-3.65;58.84
53715;BME280;39608;55.630;37.864;2023-11-19T08:58:08;100193.97;;;-3.46;57.45
53715;BME280;39608;55.630;37.864;2023-11-19T09:03:15;100197.03;;;-3.64;56.97
53715;BME280;39608;55.630;37.864;2023-11-19T09:08:17;100187.16;;;-4.00;56.82
53715;BME280;39608;55.630;37.864;2023-11-19T09:13:19;100187.97;;;-3.99;57.04
53715;BME280;39608;55.630;37.864;2023-11-19T09:18:22;100178.66;;;-3.80;56.90
53715;BME280;39608;55.630;37.864;2023-11-19T09:23:24;100179.28;;;-3.78;57.05
53715;BME280;39608;55.630;37.864;2023-11-19T09:28:28;100182.97;;;-3.94;56.58
53715;BME280;39608;55.630;37.864;2023-11-19T09:33:32;100169.34;;;-3.91;57.23
53715;BME280;39608;55.630;37.864;2023-11-19T09:38:35;100154.06;;;-3.59;56.13
53715;BME280;39608;55.630;37.864;2023-11-19T09:43:39;100157.56;;;-3.37;56.02
53715;BME280;39608;55.630;37.864;2023-11-19T09:48:43;100145.69;;;-3.41;55.42
53715;BME280;39608;55.630;37.864;2023-11-19T09:53:46;100145.38;;;-3.31;55.54
53715;BME280;39608;55.630;37.864;2023-11-19T09:58:48;100135.28;;;-3.21;55.13
53715;BME280;39608;55.630;37.864;2023-11-19T10:03:54;100124.94;;;-3.16;55.40
53715;BME280;39608;55.630;37.864;2023-11-19T10:09:04;100120.38;;;-3.22;54.93
53715;BME280;39608;55.630;37.864;2023-11-19T10:14:06;100127.50;;;-3.44;54.66
53715;BME280;39608;55.630;37.864;2023-11-19T10:19:12;100119.31;;;-3.64;55.39
53715;BME280;39608;55.630;37.864;2023-11-19T10:24:31;100110.31;;;-3.85;55.00
53715;BME280;39608;55.630;37.864;2023-11-19T10:29:36;100114.50;;;-3.90;55.26
53715;BME280;39608;55.630;37.864;2023-11-19T10:34:45;100111.63;;;-3.96;55.39
53715;BME280;39608;55.630;37.864;2023-11-19T10:39:54;100102.03;;;-3.97;55.30
53715;BME280;39608;55.630;37.864;2023-11-19T10:44:56;100089.25;;;-3.93;54.97
53715;BME280;39608;55.630;37.864;2023-11-19T10:50:05;100095.66;;;-3.66;54.70
53715;BME280;39608;55.630;37.864;2023-11-19T10:55:09;100068.44;;;-3.74;53.99
53715;BME280;39608;55.630;37.864;2023-11-19T11:00:17;100083.75;;;-3.55;53.82
53715;BME280;39608;55.630;37.864;2023-11-19T11:05:26;100101.59;;;-3.42;53.67
53715;BME280;39608;55.630;37.864;2023-11-19T11:10:28;100108.00;;;-3.36;54.45
53715;BME280;39608;55.630;37.864;2023-11-19T11:15:34;100102.00;;;-3.45;53.43
53715;BME280;39608;55.630;37.864;2023-11-19T11:20:37;100096.16;;;-3.55;52.79
53715;BME280;39608;55.630;37.864;2023-11-19T11:25:43;100098.50;;;-3.46;52.87
53715;BME280;39608;55.630;37.864;2023-11-19T11:31:07;100097.34;;;-3.21;53.19
53715;BME280;39608;55.630;37.864;2023-11-19T11:36:19;100092.84;;;-3.21;53.05
53715;BME280;39608;55.630;37.864;2023-11-19T11:41:22;100090.25;;;-3.36;52.60
53715;BME280;39608;55.630;37.864;2023-11-19T11:46:53;100088.72;;;-3.23;53.14
53715;BME280;39608;55.630;37.864;2023-11-19T11:52:01;100080.00;;;-3.39;52.53
53715;BME280;39608;55.630;37.864;2023-11-19T11:57:11;100098.66;;;-3.32;52.66
53715;BME280;39608;55.630;37.864;2023-11-19T12:02:16;100087.59;;;-3.36;52.68
53715;BME280;39608;55.630;37.864;2023-11-19T12:07:21;100085.19;;;-3.52;53.48
53715;BME280;39608;55.630;37.864;2023-11-19T12:12:26;100086.88;;;-3.66;53.80
53715;BME280;39608;55.630;37.864;2023-11-19T12:17:42;100053.22;;;-3.87;53.93
53715;BME280;39608;55.630;37.864;2023-11-19T12:22:52;100070.41;;;-3.98;53.74
53715;BME280;39608;55.630;37.864;2023-11-19T12:27:57;100080.38;;;-4.00;54.07
53715;BME280;39608;55.630;37.864;2023-11-19T12:32:59;100071.31;;;-3.91;54.39
53715;BME280;39608;55.630;37.864;2023-11-19T12:38:03;100066.81;;;-3.90;54.48
53715;BME280;39608;55.630;37.864;2023-11-19T12:43:05;100055.91;;;-4.02;54.54
53715;BME280;39608;55.630;37.864;2023-11-19T12:48:08;100050.25;;;-4.14;54.32
53715;BME280;39608;55.630;37.864;2023-11-19T12:53:13;100030.56;;;-4.26;54.50
53715;BME280;39608;55.630;37.864;2023-11-19T12:58:30;100043.50;;;-4.17;54.60
53715;BME280;39608;55.630;37.864;2023-11-19T13:03:33;100021.97;;;-4.28;55.23
53715;BME280;39608;55.630;37.864;2023-11-19T13:08:38;100035.00;;;-4.12;54.98
53715;BME280;39608;55.630;37.864;2023-11-19T13:14:03;100024.50;;;-4.20;55.49
53715;BME280;39608;55.630;37.864;2023-11-19T13:19:05;100020.59;;;-4.24;55.54
53715;BME280;39608;55.630;37.864;2023-11-19T13:24:10;100020.22;;;-4.21;55.76
53715;BME280;39608;55.630;37.864;2023-11-19T13:29:12;100025.44;;;-4.28;55.86
53715;BME280;39608;55.630;37.864;2023-11-19T13:34:15;100027.00;;;-4.34;56.00
53715;BME280;39608;55.630;37.864;2023-11-19T13:39:18;100028.63;;;-4.33;56.13
53715;BME280;39608;55.630;37.864;2023-11-19T13:44:23;100032.75;;;-4.45;56.36
53715;BME280;39608;55.630;37.864;2023-11-19T13:49:25;100037.50;;;-4.55;56.97
53715;BME280;39608;55.630;37.864;2023-11-19T13:54:29;100030.66;;;-4.65;57.48
53715;BME280;39608;55.630;37.864;2023-11-19T13:59:31;100029.75;;;-4.72;57.93
53715;BME280;39608;55.630;37.864;2023-11-19T14:04:34;100037.31;;;-4.69;57.96
53715;BME280;39608;55.630;37.864;2023-11-19T14:09:37;100031.41;;;-4.71;58.27
53715;BME280;39608;55.630;37.864;2023-11-19T14:14:39;100023.34;;;-4.77;58.53
53715;BME280;39608;55.630;37.864;2023-11-19T14:19:42;100021.88;;;-4.80;59.01
53715;BME280;39608;55.630;37.864;2023-11-19T14:24:46;100034.41;;;-4.74;59.15
53715;BME280;39608;55.630;37.864;2023-11-19T14:29:48;100021.69;;;-4.78;59.32
53715;BME280;39608;55.630;37.864;2023-11-19T14:34:51;100018.25;;;-4.79;59.30
53715;BME280;39608;55.630;37.864;2023-11-19T14:39:55;100020.19;;;-4.73;59.42
53715;BME280;39608;55.630;37.864;2023-11-19T14:44:57;100025.81;;;-4.76;59.55
53715;BME280;39608;55.630;37.864;2023-11-19T14:49:59;100020.09;;;-4.79;59.47
53715;BME280;39608;55.630;37.864;2023-11-19T14:55:06;100022.91;;;-4.81;59.60
53715;BME280;39608;55.630;37.864;2023-11-19T15:00:09;100018.88;;;-4.92;59.73
53715;BME280;39608;55.630;37.864;2023-11-19T15:05:13;99991.03;;;-5.03;59.70
53715;BME280;39608;55.630;37.864;2023-11-19T15:10:17;100003.44;;;-4.88;59.63
53715;BME280;39608;55.630;37.864;2023-11-19T15:15:19;99999.56;;;-4.92;59.73
53715;BME280;39608;55.630;37.864;2023-11-19T15:20:21;99990.97;;;-4.94;59.62
53715;BME280;39608;55.630;37.864;2023-11-19T15:25:24;99957.59;;;-5.10;59.62
53715;BME280;39608;55.630;37.864;2023-11-19T15:30:26;99976.16;;;-5.04;59.49
53715;BME280;39608;55.630;37.864;2023-11-19T15:35:29;99963.75;;;-5.18;59.51
53715;BME280;39608;55.630;37.864;2023-11-19T15:40:32;99967.59;;;-5.36;59.75
53715;BME280;39608;55.630;37.864;2023-11-19T15:45:34;99971.59;;;-5.63;59.75
53715;BME280;39608;55.630;37.864;2023-11-19T15:50:39;99942.91;;;-5.89;60.04
53715;BME280;39608;55.630;37.864;2023-11-19T15:55:45;99970.34;;;-5.90;60.45
53715;BME280;39608;55.630;37.864;2023-11-19T16:00:47;99964.84;;;-6.04;60.65
53715;BME280;39608;55.630;37.864;2023-11-19T16:05:50;99972.16;;;-6.14;60.68
53715;BME280;39608;55.630;37.864;2023-11-19T16:10:53;99961.31;;;-6.19;60.63
53715;BME280;39608;55.630;37.864;2023-11-19T16:15:55;99954.13;;;-6.33;60.88
53715;BME280;39608;55.630;37.864;2023-11-19T16:20:57;99960.56;;;-6.36;61.07
53715;BME280;39608;55.630;37.864;2023-11-19T16:26:02;99962.22;;;-6.35;61.28
53715;BME280;39608;55.630;37.864;2023-11-19T16:31:06;99956.47;;;-6.39;61.51
53715;BME280;39608;55.630;37.864;2023-11-19T16:41:26;99946.94;;;-6.48;61.68
53715;BME280;39608;55.630;37.864;2023-11-19T16:46:28;99952.53;;;-6.43;61.71
53715;BME280;39608;55.630;37.864;2023-11-19T16:51:31;99950.59;;;-6.49;62.03
53715;BME280;39608;55.630;37.864;2023-11-19T16:56:41;99951.34;;;-6.40;61.77
53715;BME280;39608;55.630;37.864;2023-11-19T17:01:43;99954.34;;;-6.43;61.95
53715;BME280;39608;55.630;37.864;2023-11-19T17:06:46;99946.13;;;-6.48;61.72
53715;BME280;39608;55.630;37.864;2023-11-19T17:11:52;99913.38;;;-6.62;61.95
53715;BME280;39608;55.630;37.864;2023-11-19T17:16:54;99936.72;;;-6.51;61.96
53715;BME280;39608;55.630;37.864;2023-11-19T17:21:59;99929.88;;;-6.60;62.10
53715;BME280;39608;55.630;37.864;2023-11-19T17:27:10;99926.91;;;-6.65;62.16
53715;BME280;39608;55.630;37.864;2023-11-19T17:32:12;99941.44;;;-6.69;62.57
53715;BME280;39608;55.630;37.864;2023-11-19T17:37:14;99931.25;;;-6.73;62.47
53715;BME280;39608;55.630;37.864;2023-11-19T17:42:19;99929.25;;;-6.71;62.69
53715;BME280;39608;55.630;37.864;2023-11-19T17:47:23;99921.53;;;-6.80;62.39
53715;BME280;39608;55.630;37.864;2023-11-19T17:52:25;99925.16;;;-6.81;62.60
53715;BME280;39608;55.630;37.864;2023-11-19T17:57:28;99921.16;;;-6.69;62.77
53715;BME280;39608;55.630;37.864;2023-11-19T18:02:32;99928.03;;;-6.60;62.54
53715;BME280;39608;55.630;37.864;2023-11-19T18:07:34;99924.88;;;-6.55;62.43
53715;BME280;39608;55.630;37.864;2023-11-19T18:12:39;99929.34;;;-6.56;62.32
53715;BME280;39608;55.630;37.864;2023-11-19T18:17:41;99913.34;;;-6.54;62.29
53715;BME280;39608;55.630;37.864;2023-11-19T18:22:44;99925.66;;;-6.46;61.73
53715;BME280;39608;55.630;37.864;2023-11-19T18:27:49;99916.56;;;-6.44;61.59
53715;BME280;39608;55.630;37.864;2023-11-19T18:32:51;99923.97;;;-6.39;61.73
53715;BME280;39608;55.630;37.864;2023-11-19T18:37:55;99922.34;;;-6.40;61.56
53715;BME280;39608;55.630;37.864;2023-11-19T18:42:59;99911.94;;;-6.42;61.74
53715;BME280;39608;55.630;37.864;2023-11-19T18:48:06;99913.06;;;-6.36;61.38
53715;BME280;39608;55.630;37.864;2023-11-19T18:53:08;99921.75;;;-6.27;61.10
53715;BME280;39608;55.630;37.864;2023-11-19T18:58:11;99926.84;;;-6.26;60.96
53715;BME280;39608;55.630;37.864;2023-11-19T19:03:14;99921.88;;;-6.21;60.96
53715;BME280;39608;55.630;37.864;2023-11-19T19:08:20;99923.53;;;-6.20;60.91
53715;BME280;39608;55.630;37.864;2023-11-19T19:13:24;99910.25;;;-6.11;60.95
53715;BME280;39608;55.630;37.864;2023-11-19T19:18:26;99921.97;;;-6.06;60.68
53715;BME280;39608;55.630;37.864;2023-11-19T19:23:28;99927.25;;;-5.91;60.54
53715;BME280;39608;55.630;37.864;2023-11-19T19:28:32;99915.63;;;-5.81;60.35
53715;BME280;39608;55.630;37.864;2023-11-19T19:33:37;99926.50;;;-5.76;60.21
53715;BME280;39608;55.630;37.864;2023-11-19T19:38:39;99918.38;;;-5.75;59.83
53715;BME280;39608;55.630;37.864;2023-11-19T19:43:45;99903.03;;;-5.79;59.55
53715;BME280;39608;55.630;37.864;2023-11-19T19:48:47;99923.00;;;-5.77;59.90
53715;BME280;39608;55.630;37.864;2023-11-19T19:53:51;99920.91;;;-5.81;59.32
53715;BME280;39608;55.630;37.864;2023-11-19T19:58:55;99914.66;;;-6.04;59.90
53715;BME280;39608;55.630;37.864;2023-11-19T20:04:00;99922.34;;;-6.17;60.26
53715;BME280;39608;55.630;37.864;2023-11-19T20:09:04;99918.13;;;-6.26;60.08
53715;BME280;39608;55.630;37.864;2023-11-19T20:14:09;99914.38;;;-6.32;59.95
53715;BME280;39608;55.630;37.864;2023-11-19T20:19:12;99915.59;;;-6.43;60.26
53715;BME280;39608;55.630;37.864;2023-11-19T20:24:14;99921.81;;;-6.36;60.66
53715;BME280;39608;55.630;37.864;2023-11-19T20:29:18;99921.75;;;-6.27;60.35
53715;BME280;39608;55.630;37.864;2023-11-19T20:34:20;99921.16;;;-6.38;60.94
53715;BME280;39608;55.630;37.864;2023-11-19T20:39:22;99906.19;;;-6.45;61.23
53715;BME280;39608;55.630;37.864;2023-11-19T20:44:27;99897.16;;;-6.51;61.49
53715;BME280;39608;55.630;37.864;2023-11-19T20:49:29;99879.25;;;-6.64;61.89
53715;BME280;39608;55.630;37.864;2023-11-19T20:54:31;99896.13;;;-6.42;61.83
53715;BME280;39608;55.630;37.864;2023-11-19T20:59:37;99880.81;;;-6.23;61.72
53715;BME280;39608;55.630;37.864;2023-11-19T21:04:39;99888.63;;;-5.92;61.60
53715;BME280;39608;55.630;37.864;2023-11-19T21:09:43;99879.75;;;-5.76;61.48
53715;BME280;39608;55.630;37.864;2023-11-19T21:14:47;99878.25;;;-5.55;61.30
53715;BME280;39608;55.630;37.864;2023-11-19T21:19:49;99867.59;;;-5.47;61.37
53715;BME280;39608;55.630;37.864;2023-11-19T21:24:51;99872.78;;;-5.39;61.35
53715;BME280;39608;55.630;37.864;2023-11-19T21:29:55;99873.59;;;-5.38;61.00
53715;BME280;39608;55.630;37.864;2023-11-19T21:34:57;99872.88;;;-5.47;61.27
53715;BME280;39608;55.630;37.864;2023-11-19T21:40:04;99861.19;;;-5.53;61.21
53715;BME280;39608;55.630;37.864;2023-11-19T21:45:11;99864.00;;;-5.54;61.54
53715;BME280;39608;55.630;37.864;2023-11-19T21:50:14;99850.53;;;-5.59;61.39
53715;BME280;39608;55.630;37.864;2023-11-19T21:55:16;99837.03;;;-5.64;61.48
53715;BME280;39608;55.630;37.864;2023-11-19T22:00:20;99838.69;;;-5.63;61.36
53715;BME280;39608;55.630;37.864;2023-11-19T22:05:22;99841.16;;;-5.62;61.51
53715;BME280;39608;55.630;37.864;2023-11-19T22:10:26;99845.81;;;-5.49;61.74
53715;BME280;39608;55.630;37.864;2023-11-19T22:15:29;99836.59;;;-5.38;61.43
53715;BME280;39608;55.630;37.864;2023-11-19T22:20:32;99832.13;;;-5.38;61.75
53715;BME280;39608;55.630;37.864;2023-11-19T22:25:35;99818.28;;;-5.40;61.65
53715;BME280;39608;55.630;37.864;2023-11-19T22:30:39;99822.41;;;-5.37;61.49
53715;BME280;39608;55.630;37.864;2023-11-19T22:35:41;99824.56;;;-5.41;61.97
53715;BME280;39608;55.630;37.864;2023-11-19T22:40:46;99818.81;;;-5.29;61.59
53715;BME280;39608;55.630;37.864;2023-11-19T22:45:49;99793.38;;;-5.30;61.50
53715;BME280;39608;55.630;37.864;2023-11-19T22:50:52;99801.41;;;-5.24;61.59
53715;BME280;39608;55.630;37.864;2023-11-19T22:55:53;99808.78;;;-5.19;61.83
53715;BME280;39608;55.630;37.864;2023-11-19T23:00:59;99802.75;;;-5.13;61.57
53715;BME280;39608;55.630;37.864;2023-11-19T23:06:03;99799.56;;;-5.23;61.76
53715;BME280;39608;55.630;37.864;2023-11-19T23:11:06;99810.72;;;-5.28;61.66
53715;BME280;39608;55.630;37.864;2023-11-19T23:16:10;99793.13;;;-5.36;61.89
53715;BME280;39608;55.630;37.864;2023-11-19T23:21:14;99807.69;;;-5.25;61.90
53715;BME280;39608;55.630;37.864;2023-11-19T23:26:18;99810.16;;;-5.23;61.71
53715;BME280;39608;55.630;37.864;2023-11-19T23:31:22;99808.59;;;-5.18;61.92
53715;BME280;39608;55.630;37.864;2023-11-19T23:36:26;99805.50;;;-5.21;61.64
53715;BME280;39608;55.630;37.864;2023-11-19T23:41:28;99780.16;;;-5.30;61.37
53715;BME280;39608;55.630;37.864;2023-11-19T23:46:31;99781.81;;;-5.29;61.68
53715;BME280;39608;55.630;37.864;2023-11-19T23:51:36;99781.44;;;-5.26;61.48
53715;BME280;39608;55.630;37.864;2023-11-19T23:56:39;99780.44;;;-5.25;61.59
